createdAt,value
2019-02-16T00:00:12.082Z,20.50
2019-02-16T00:02:43.532Z,21.70
2019-02-16T00:05:13.396Z,20.10
2019-02-16T00:07:43.632Z,19.15
2019-02-16T00:10:13.484Z,21.77
2019-02-16T00:12:43.794Z,24.70
2019-02-16T00:15:15.408Z,19.37
2019-02-16T00:17:45.260Z,20.35
2019-02-16T00:20:16.818Z,21.40
2019-02-16T00:22:46.657Z,23.43
2019-02-16T00:25:16.434Z,20.30
2019-02-16T00:27:46.446Z,22.50
2019-02-16T00:30:16.433Z,24.12
2019-02-16T00:32:46.269Z,22.85
2019-02-16T00:35:16.563Z,23.43
2019-02-16T00:37:46.342Z,22.02
2019-02-16T00:40:16.115Z,24.05
2019-02-16T00:42:45.890Z,21.80
2019-02-16T00:45:15.652Z,23.63
2019-02-16T00:47:45.505Z,21.73
2019-02-16T00:50:15.348Z,23.05
2019-02-16T00:52:45.105Z,19.87
2019-02-16T00:55:14.813Z,24.23
2019-02-16T00:57:44.587Z,19.40
2019-02-16T01:00:14.508Z,21.00
2019-02-16T01:02:44.444Z,27.07
2019-02-16T01:05:14.232Z,28.17
2019-02-16T01:07:44.047Z,21.60
2019-02-16T01:10:13.867Z,24.27
2019-02-16T01:12:43.671Z,19.62
2019-02-16T01:15:13.391Z,30.63
2019-02-16T01:17:44.064Z,26.57
2019-02-16T01:20:13.774Z,28.90
2019-02-16T01:22:43.639Z,23.53
2019-02-16T01:25:13.352Z,23.10
2019-02-16T01:27:43.087Z,23.80
2019-02-16T01:30:13.147Z,21.17
2019-02-16T01:32:42.874Z,23.17
2019-02-16T01:35:12.692Z,23.87
2019-02-16T01:37:42.398Z,22.83
2019-02-16T01:40:12.893Z,26.73
2019-02-16T01:42:42.532Z,23.73
2019-02-16T01:45:12.342Z,26.03
2019-02-16T01:47:42.140Z,27.03
2019-02-16T01:50:11.978Z,27.30
2019-02-16T01:52:42.950Z,28.92
2019-02-16T01:55:13.875Z,25.47
2019-02-16T01:57:43.580Z,27.27
2019-02-16T02:00:13.312Z,25.37
2019-02-16T02:02:43.070Z,24.73
2019-02-16T02:05:12.951Z,27.32
2019-02-16T02:07:42.713Z,26.90
2019-02-16T02:10:12.564Z,28.30
2019-02-16T02:12:42.447Z,27.10
2019-02-16T02:15:12.167Z,27.13
2019-02-16T02:17:42.197Z,28.13
2019-02-16T02:20:11.979Z,24.90
2019-02-16T02:22:41.772Z,23.93
2019-02-16T02:25:11.480Z,25.47
2019-02-16T02:27:41.319Z,26.37
2019-02-16T02:30:11.067Z,25.53
2019-02-16T02:32:40.807Z,23.73
2019-02-16T02:35:10.579Z,24.90
2019-02-16T02:37:40.323Z,28.97
2019-02-16T02:40:10.186Z,23.60
2019-02-16T02:42:39.941Z,27.70
2019-02-16T02:45:10.852Z,27.27
2019-02-16T02:47:40.601Z,27.97
2019-02-16T02:50:10.319Z,26.83
2019-02-16T02:52:40.034Z,34.43
2019-02-16T02:55:09.798Z,24.73
2019-02-16T02:57:39.627Z,30.67
2019-02-16T03:00:10.284Z,25.30
2019-02-16T03:02:39.993Z,23.63
2019-02-16T03:05:10.942Z,27.77
2019-02-16T03:07:40.656Z,28.60
2019-02-16T03:10:10.482Z,33.57
2019-02-16T03:12:40.937Z,27.97
2019-02-16T03:15:10.748Z,29.72
2019-02-16T03:17:40.469Z,32.60
2019-02-16T03:20:10.323Z,32.10
2019-02-16T03:22:59.410Z,31.23
2019-02-16T03:25:29.118Z,29.47
2019-02-16T03:28:00.321Z,32.47
2019-02-16T03:30:31.503Z,29.70
2019-02-16T03:33:02.708Z,30.50
2019-02-16T03:35:39.021Z,34.73
2019-02-16T03:38:13.886Z,31.53
2019-02-16T03:40:45.062Z,30.07
2019-02-16T03:43:14.787Z,32.67
2019-02-16T03:45:44.758Z,28.33
2019-02-16T03:48:14.421Z,30.83
2019-02-16T03:50:44.263Z,33.33
2019-02-16T03:53:14.275Z,31.87
2019-02-16T03:55:43.915Z,34.10
2019-02-16T03:58:13.861Z,31.57
2019-02-16T04:00:43.569Z,32.37
2019-02-16T04:03:13.310Z,32.40
2019-02-16T04:05:43.016Z,32.97
2019-02-16T04:08:12.747Z,31.63
2019-02-16T04:10:42.458Z,29.50
2019-02-16T04:13:12.225Z,33.83
2019-02-16T04:15:41.914Z,35.57
2019-02-16T04:18:12.525Z,33.57
2019-02-16T04:20:42.188Z,31.83
2019-02-16T04:23:11.997Z,32.03
2019-02-16T04:25:41.762Z,35.90
2019-02-16T04:28:11.580Z,34.50
2019-02-16T04:30:41.381Z,31.73
2019-02-16T04:33:11.213Z,33.40
2019-02-16T04:35:40.924Z,36.47
2019-02-16T04:38:10.728Z,37.80
2019-02-16T04:40:40.413Z,33.00
2019-02-16T04:43:10.261Z,39.20
2019-02-16T04:45:39.961Z,35.67
2019-02-16T04:48:09.763Z,35.87
2019-02-16T04:50:39.464Z,35.57
2019-02-16T04:53:09.187Z,37.97
2019-02-16T04:55:39.236Z,39.93
2019-02-16T04:58:08.943Z,41.87
2019-02-16T05:00:38.768Z,39.30
2019-02-16T05:03:08.471Z,33.80
2019-02-16T05:05:38.265Z,38.03
2019-02-16T05:08:07.898Z,46.03
2019-02-16T05:10:37.733Z,38.93
2019-02-16T05:13:07.433Z,32.50
2019-02-16T05:15:37.197Z,43.33
2019-02-16T05:18:06.976Z,37.73
2019-02-16T05:20:36.706Z,42.30
2019-02-16T05:23:06.409Z,46.87
2019-02-16T05:25:36.366Z,43.17
2019-02-16T05:28:06.287Z,44.13
2019-02-16T05:30:36.114Z,46.30
2019-02-16T05:33:05.897Z,45.00
2019-02-16T05:35:35.662Z,46.87
2019-02-16T05:38:05.327Z,51.77
2019-02-16T05:40:35.199Z,60.97
2019-02-16T05:43:04.998Z,47.47
2019-02-16T05:45:34.740Z,53.57
2019-02-16T05:48:04.572Z,67.67
2019-02-16T05:50:34.317Z,70.80
2019-02-16T05:53:04.158Z,108.93
2019-02-16T05:55:34.296Z,100.57
2019-02-16T05:58:04.008Z,79.47
2019-02-16T06:00:33.910Z,124.57
2019-02-16T06:03:03.707Z,194.50
2019-02-16T06:05:33.794Z,101.03
2019-02-16T06:08:03.507Z,210.60
2019-02-16T06:10:33.335Z,162.97
2019-02-16T06:13:03.148Z,84.90
2019-02-16T06:15:32.911Z,77.30
2019-02-16T06:18:02.619Z,85.77
2019-02-16T06:20:34.239Z,263.17
2019-02-16T06:23:04.846Z,246.00
2019-02-16T06:25:35.303Z,210.00
2019-02-16T06:28:05.097Z,244.60
2019-02-16T06:30:34.942Z,168.57
2019-02-16T06:33:04.823Z,390.17
2019-02-16T06:35:36.188Z,276.10
2019-02-16T06:38:06.011Z,261.10
2019-02-16T06:40:35.841Z,191.13
2019-02-16T06:43:05.617Z,107.60
2019-02-16T06:45:35.321Z,183.53
2019-02-16T06:48:06.028Z,138.87
2019-02-16T06:50:37.153Z,111.53
2019-02-16T06:53:13.148Z,174.60
2019-02-16T06:55:43.476Z,97.30
2019-02-16T06:58:13.309Z,139.23
2019-02-16T07:00:43.042Z,116.63
2019-02-16T07:03:12.830Z,79.83
2019-02-16T07:05:42.826Z,68.87
2019-02-16T07:08:13.387Z,383.93
2019-02-16T07:10:43.108Z,134.67
2019-02-16T07:13:13.936Z,202.90
2019-02-16T07:15:46.125Z,194.40
2019-02-16T07:18:17.831Z,148.37
2019-02-16T07:20:48.380Z,185.20
2019-02-16T07:23:22.534Z,179.40
2019-02-16T07:25:49.680Z,131.47
2019-02-16T07:28:20.428Z,161.50
2019-02-16T07:30:50.197Z,117.83
2019-02-16T07:33:19.951Z,201.40
2019-02-16T07:35:49.673Z,214.93
2019-02-16T07:38:19.443Z,175.37
2019-02-16T07:40:49.100Z,71.30
2019-02-16T07:43:36.902Z,128.40
2019-02-16T07:46:17.249Z,98.40
2019-02-16T07:48:48.665Z,149.57
2019-02-16T07:51:21.189Z,188.23
2019-02-16T07:54:09.295Z,162.30
2019-02-16T07:56:41.018Z,218.90
2019-02-16T07:59:12.673Z,190.70
2019-02-16T08:01:51.236Z,150.03
2019-02-16T08:04:28.433Z,184.07
2019-02-16T08:07:08.792Z,108.20
2019-02-16T08:09:56.568Z,245.03
2019-02-16T08:12:33.842Z,171.07
2019-02-16T08:15:06.705Z,197.57
2019-02-16T08:17:46.762Z,214.67
2019-02-16T08:20:34.865Z,171.57
2019-02-16T08:23:06.557Z,161.63
2019-02-16T08:25:40.777Z,144.53
2019-02-16T08:28:18.735Z,139.37
2019-02-16T08:31:02.406Z,83.67
2019-02-16T08:33:33.814Z,115.30
2019-02-16T08:36:05.301Z,108.83
2019-02-16T08:38:37.493Z,111.97
2019-02-16T08:41:14.979Z,129.85
2019-02-16T08:44:02.931Z,88.70
2019-02-16T08:46:37.039Z,94.43
2019-02-16T08:49:16.168Z,127.80
2019-02-16T08:52:04.304Z,49.53
2019-02-16T08:54:35.984Z,135.40
2019-02-16T08:57:13.554Z,95.00
2019-02-16T08:59:46.324Z,95.00
2019-02-16T09:02:21.549Z,141.80
2019-02-16T09:04:52.969Z,95.10
2019-02-16T09:07:41.616Z,150.23
2019-02-16T09:10:13.073Z,158.65
2019-02-16T09:13:01.464Z,172.23
2019-02-16T09:15:49.499Z,161.73
2019-02-16T09:18:26.924Z,112.80
2019-02-16T09:21:14.176Z,175.45
2019-02-16T09:23:39.389Z,149.68
2019-02-16T09:26:11.602Z,97.55
2019-02-16T09:28:45.690Z,147.30
2019-02-16T09:31:26.280Z,165.80
2019-02-16T09:34:06.965Z,111.90
2019-02-16T09:36:38.383Z,214.43
2019-02-16T09:39:10.020Z,96.47
2019-02-16T09:41:50.370Z,115.65
2019-02-16T09:44:24.536Z,140.27
2019-02-16T09:46:59.144Z,111.17
2019-02-16T09:49:30.625Z,148.63
2019-02-16T09:52:01.997Z,161.65
2019-02-16T09:54:42.493Z,131.00
2019-02-16T09:57:21.267Z,167.68
2019-02-16T10:00:09.331Z,108.37
2019-02-16T10:02:49.906Z,167.03
2019-02-16T10:05:24.293Z,171.68
2019-02-16T10:07:55.683Z,199.35
2019-02-16T10:10:27.865Z,132.50
2019-02-16T10:13:08.015Z,235.78
2019-02-16T10:15:51.517Z,168.30
2019-02-16T10:18:22.892Z,213.97
2019-02-16T10:21:00.035Z,111.32
2019-02-16T10:23:48.275Z,211.83
2019-02-16T10:26:27.047Z,142.40
2019-02-16T10:28:58.387Z,116.75
2019-02-16T10:31:33.089Z,176.60
2019-02-16T10:34:04.542Z,157.00
2019-02-16T10:36:45.331Z,138.20
2019-02-16T10:39:17.559Z,168.22
2019-02-16T10:41:48.939Z,180.30
2019-02-16T10:44:29.550Z,173.32
2019-02-16T10:47:16.266Z,102.22
2019-02-16T10:49:53.964Z,156.22
2019-02-16T10:52:25.404Z,69.67
2019-02-16T10:55:05.793Z,141.82
2019-02-16T10:57:37.259Z,116.73
2019-02-16T11:00:16.015Z,151.53
2019-02-16T11:02:47.470Z,102.27
2019-02-16T11:05:22.645Z,87.92
2019-02-16T11:08:00.115Z,67.92
2019-02-16T11:10:40.973Z,41.70
2019-02-16T11:13:19.184Z,31.02
2019-02-16T11:16:06.051Z,37.10
2019-02-16T11:18:40.540Z,41.63
2019-02-16T11:21:12.730Z,33.42
2019-02-16T11:23:45.443Z,37.15
2019-02-16T11:26:29.690Z,32.13
2019-02-16T11:29:01.121Z,29.02
2019-02-16T11:31:32.509Z,31.65
2019-02-16T11:34:09.797Z,36.85
2019-02-16T11:36:43.960Z,28.35
2019-02-16T11:39:24.553Z,33.75
2019-02-16T11:41:56.265Z,32.83
2019-02-16T11:44:28.813Z,31.33
2019-02-16T11:47:01.287Z,33.15
2019-02-16T11:49:35.960Z,33.00
2019-02-16T11:52:10.521Z,34.08
2019-02-16T11:54:45.726Z,34.90
2019-02-16T11:57:21.578Z,34.53
2019-02-16T12:00:10.922Z,39.48
2019-02-16T12:02:51.281Z,37.35
2019-02-16T12:05:25.270Z,34.38
2019-02-16T12:08:15.043Z,33.53
2019-02-16T12:11:04.830Z,35.73
2019-02-16T12:13:48.156Z,40.28
2019-02-16T12:16:24.471Z,43.23
2019-02-16T12:19:12.739Z,44.80
2019-02-16T12:21:44.118Z,43.28
2019-02-16T12:24:24.437Z,45.30
2019-02-16T12:27:07.942Z,49.20
2019-02-16T12:29:41.151Z,53.45
2019-02-16T12:32:15.946Z,44.67
2019-02-16T12:34:47.423Z,44.83
2019-02-16T12:37:35.661Z,44.80
2019-02-16T12:40:20.332Z,46.53
2019-02-16T12:42:51.734Z,46.95
2019-02-16T12:45:39.488Z,40.78
2019-02-16T12:48:20.085Z,44.33
2019-02-16T12:50:51.907Z,43.60
2019-02-16T12:53:40.131Z,42.65
2019-02-16T12:56:11.413Z,45.75
2019-02-16T12:58:49.328Z,41.00
2019-02-16T13:01:37.296Z,44.65
2019-02-16T13:04:26.737Z,38.60
2019-02-16T13:06:58.002Z,39.10
2019-02-16T13:09:40.309Z,33.23
2019-02-16T13:12:11.915Z,31.45
2019-02-16T13:14:46.473Z,43.83
2019-02-16T13:17:24.211Z,33.05
2019-02-16T13:19:55.681Z,37.80
2019-02-16T13:22:27.033Z,36.25
2019-02-16T13:25:03.928Z,39.33
2019-02-16T13:27:47.705Z,36.58
2019-02-16T13:30:19.093Z,32.88
2019-02-16T13:32:50.641Z,35.05
2019-02-16T13:35:39.786Z,33.88
2019-02-16T13:38:16.896Z,30.75
2019-02-16T13:40:48.363Z,29.67
2019-02-16T13:43:22.762Z,26.73
2019-02-16T13:46:03.189Z,32.75
2019-02-16T13:48:40.519Z,27.60
2019-02-16T13:51:20.865Z,30.05
2019-02-16T13:54:08.644Z,31.05
2019-02-16T13:56:52.829Z,32.08
2019-02-16T13:59:24.176Z,28.07
2019-02-16T14:02:04.162Z,31.17
2019-02-16T14:04:39.109Z,33.85
2019-02-16T14:07:16.238Z,29.42
2019-02-16T14:09:53.532Z,31.15
2019-02-16T14:12:24.985Z,29.45
2019-02-16T14:14:56.269Z,32.23
2019-02-16T14:17:27.644Z,33.55
2019-02-16T14:19:59.038Z,34.70
2019-02-16T14:22:29.007Z,30.97
2019-02-16T14:25:00.387Z,31.85
2019-02-16T14:27:30.397Z,31.33
2019-02-16T14:30:00.029Z,35.58
2019-02-16T14:32:29.861Z,32.83
2019-02-16T14:34:59.765Z,33.02
2019-02-16T14:37:31.186Z,37.03
2019-02-16T14:40:01.226Z,36.13
2019-02-16T14:42:31.221Z,36.42
2019-02-16T14:45:01.152Z,38.23
2019-02-16T14:47:30.958Z,32.93
2019-02-16T14:50:00.664Z,38.42
2019-02-16T14:52:30.429Z,35.05
2019-02-16T14:55:00.557Z,32.15
2019-02-16T14:57:30.296Z,34.60
2019-02-16T15:00:00.018Z,42.67
2019-02-16T15:02:30.059Z,37.23
2019-02-16T15:04:59.766Z,32.83
2019-02-16T15:07:29.580Z,35.13
2019-02-16T15:10:00.923Z,36.05
2019-02-16T15:12:30.713Z,30.43
2019-02-16T15:15:01.491Z,29.35
2019-02-16T15:17:31.328Z,31.73
2019-02-16T15:20:01.053Z,33.55
2019-02-16T15:22:32.404Z,28.23
2019-02-16T15:25:02.037Z,33.58
2019-02-16T15:27:31.714Z,30.50
2019-02-16T15:30:01.515Z,35.80
2019-02-16T15:32:31.372Z,32.08
2019-02-16T15:35:02.805Z,33.20
2019-02-16T15:37:34.297Z,30.62
2019-02-16T15:40:05.758Z,32.90
2019-02-16T15:42:35.690Z,31.23
2019-02-16T15:45:08.566Z,28.92
2019-02-16T15:47:38.305Z,31.50
2019-02-16T15:50:09.203Z,30.43
2019-02-16T15:52:38.983Z,31.05
2019-02-16T15:55:10.157Z,30.40
2019-02-16T15:57:39.867Z,31.90
2019-02-16T16:00:15.131Z,30.80
2019-02-16T16:02:46.085Z,35.03
2019-02-16T16:05:15.838Z,30.52
2019-02-16T16:07:47.951Z,29.18
2019-02-16T16:10:36.450Z,31.52
2019-02-16T16:13:10.565Z,29.37
2019-02-16T16:15:48.667Z,34.15
2019-02-16T16:18:38.440Z,28.25
2019-02-16T16:21:12.250Z,26.55
2019-02-16T16:23:46.661Z,28.67
2019-02-16T16:26:30.462Z,28.05
2019-02-16T16:29:01.886Z,27.87
2019-02-16T16:31:42.494Z,29.45
2019-02-16T16:34:13.875Z,28.55
2019-02-16T16:36:45.747Z,29.35
2019-02-16T16:39:21.096Z,28.30
2019-02-16T16:41:52.504Z,29.25
2019-02-16T16:44:26.589Z,27.93
2019-02-16T16:47:14.315Z,28.40
2019-02-16T16:49:51.617Z,27.70
2019-02-16T16:52:39.436Z,28.67
2019-02-16T16:55:17.418Z,29.67
2019-02-16T16:57:51.614Z,26.97
2019-02-16T17:00:38.391Z,28.27
2019-02-16T17:03:15.535Z,26.52
2019-02-16T17:06:05.261Z,28.87
2019-02-16T17:08:48.920Z,24.85
2019-02-16T17:11:23.667Z,30.25
2019-02-16T17:13:55.118Z,57.35
2019-02-16T17:16:26.445Z,35.60
2019-02-16T17:19:08.373Z,28.80
2019-02-16T17:21:45.863Z,28.35
2019-02-16T17:24:17.342Z,34.35
2019-02-16T17:27:07.241Z,33.35
2019-02-16T17:29:41.699Z,30.82
2019-02-16T17:32:13.956Z,29.92
2019-02-16T17:34:57.910Z,31.07
2019-02-16T17:37:32.404Z,33.45
2019-02-16T17:40:13.065Z,35.30
2019-02-16T17:42:51.393Z,32.67
2019-02-16T17:45:40.559Z,33.20
2019-02-16T17:48:24.111Z,32.15
2019-02-16T17:50:58.814Z,30.75
2019-02-16T17:53:36.441Z,27.37
2019-02-16T17:56:07.909Z,26.37
2019-02-16T17:58:48.730Z,24.10
2019-02-16T18:01:20.475Z,24.80
2019-02-16T18:03:51.926Z,29.07
2019-02-16T18:06:32.206Z,25.43
2019-02-16T18:09:11.063Z,22.48
2019-02-16T18:11:45.611Z,25.72
2019-02-16T18:14:33.476Z,28.17
2019-02-16T18:17:05.114Z,27.93
2019-02-16T18:19:36.800Z,26.17
2019-02-16T18:22:08.258Z,27.15
2019-02-16T18:24:42.461Z,25.75
2019-02-16T18:27:16.776Z,28.52
2019-02-16T18:29:57.133Z,30.08
2019-02-16T18:32:31.715Z,24.57
2019-02-16T18:35:09.350Z,25.82
2019-02-16T18:37:52.796Z,20.20
2019-02-16T18:40:24.431Z,24.75
2019-02-16T18:42:57.303Z,19.95
2019-02-16T18:45:37.814Z,22.42
2019-02-16T18:48:21.069Z,26.17
2019-02-16T18:50:58.342Z,25.45
2019-02-16T18:53:32.713Z,24.90
2019-02-16T18:56:10.366Z,21.48
2019-02-16T18:58:50.739Z,23.30
2019-02-16T19:01:37.681Z,24.40
2019-02-16T19:04:11.864Z,23.83
2019-02-16T19:06:43.407Z,25.68
2019-02-16T19:09:14.985Z,26.93
2019-02-16T19:11:53.352Z,24.72
2019-02-16T19:14:27.755Z,26.30
2019-02-16T19:17:15.916Z,25.20
2019-02-16T19:19:47.896Z,24.77
2019-02-16T19:22:25.822Z,24.12
2019-02-16T19:25:06.425Z,24.37
2019-02-16T19:27:38.812Z,25.48
2019-02-16T19:30:19.719Z,24.10
2019-02-16T19:32:54.073Z,28.57
2019-02-16T19:35:28.567Z,28.73
2019-02-16T19:38:16.026Z,22.70
2019-02-16T19:40:50.347Z,24.50
2019-02-16T19:43:27.980Z,24.30
2019-02-16T19:45:59.692Z,22.40
2019-02-16T19:48:37.592Z,26.73
2019-02-16T19:51:09.563Z,23.67
2019-02-16T19:53:47.228Z,26.23
2019-02-16T19:56:21.764Z,26.00
2019-02-16T19:59:09.997Z,24.02
2019-02-16T20:01:47.484Z,24.82
2019-02-16T20:04:37.256Z,22.20
2019-02-16T20:07:27.450Z,22.67
2019-02-16T20:10:17.123Z,25.35
2019-02-16T20:12:49.620Z,24.98
2019-02-16T20:15:21.127Z,21.82
2019-02-16T20:18:04.552Z,24.60
2019-02-16T20:20:52.377Z,24.70
2019-02-16T20:23:42.144Z,26.68
2019-02-16T20:26:30.133Z,35.48
2019-02-16T20:29:14.586Z,32.30
2019-02-16T20:31:49.216Z,26.97
2019-02-16T20:34:23.732Z,27.17
2019-02-16T20:37:04.245Z,26.80
2019-02-16T20:39:52.409Z,25.85
2019-02-16T20:42:39.033Z,24.18
2019-02-16T20:45:14.259Z,23.73
2019-02-16T20:47:51.782Z,24.67
2019-02-16T20:50:26.319Z,26.73
2019-02-16T20:53:04.653Z,24.10
2019-02-16T20:55:36.458Z,25.65
2019-02-16T20:58:13.887Z,24.23
2019-02-16T21:00:48.368Z,25.85
2019-02-16T21:03:36.359Z,23.67
2019-02-16T21:06:24.512Z,25.40
2019-02-16T21:09:04.848Z,24.65
2019-02-16T21:11:37.447Z,23.52
2019-02-16T21:14:12.607Z,23.15
2019-02-16T21:16:47.683Z,26.45
2019-02-16T21:19:19.217Z,19.95
2019-02-16T21:22:09.038Z,19.77
2019-02-16T21:24:43.472Z,23.67
2019-02-16T21:27:33.702Z,21.15
2019-02-16T21:30:12.219Z,21.62
2019-02-16T21:32:52.655Z,24.75
2019-02-16T21:35:24.112Z,23.98
2019-02-16T21:37:58.905Z,21.42
2019-02-16T21:40:43.498Z,22.52
2019-02-16T21:43:15.362Z,25.32
2019-02-16T21:46:03.677Z,23.22
2019-02-16T21:48:38.871Z,22.30
2019-02-16T21:51:27.020Z,22.10
2019-02-16T21:53:58.400Z,20.82
2019-02-16T21:56:32.821Z,20.72
2019-02-16T21:59:04.279Z,20.25
2019-02-16T22:01:47.778Z,20.43
2019-02-16T22:04:22.202Z,22.60
2019-02-16T22:06:53.609Z,25.48
2019-02-16T22:09:28.067Z,20.77
2019-02-16T22:11:59.554Z,23.25
2019-02-16T22:14:29.828Z,20.92
2019-02-16T22:16:59.748Z,21.35
2019-02-16T22:19:29.614Z,23.02
2019-02-16T22:21:59.519Z,22.37
2019-02-16T22:24:30.791Z,20.85
2019-02-16T22:27:01.255Z,19.92
2019-02-16T22:29:31.160Z,20.20
2019-02-16T22:32:01.407Z,20.88
2019-02-16T22:34:31.358Z,19.60
2019-02-16T22:37:01.839Z,21.75
2019-02-16T22:39:31.959Z,21.42
2019-02-16T22:42:01.883Z,25.25
2019-02-16T22:44:32.285Z,25.25
2019-02-16T22:47:02.126Z,26.10
2019-02-16T22:49:31.847Z,26.52
2019-02-16T22:52:01.725Z,24.00
2019-02-16T22:54:31.487Z,21.25
2019-02-16T22:57:01.401Z,22.07
2019-02-16T22:59:31.326Z,21.82
2019-02-16T23:02:01.247Z,23.22
2019-02-16T23:04:31.743Z,28.87
2019-02-16T23:07:01.552Z,24.65
2019-02-16T23:09:31.388Z,24.63
2019-02-16T23:12:01.192Z,23.05
2019-02-16T23:14:30.992Z,23.25
2019-02-16T23:17:00.748Z,22.70
2019-02-16T23:19:31.313Z,24.37
2019-02-16T23:22:02.388Z,24.27
2019-02-16T23:24:32.716Z,25.82
2019-02-16T23:27:04.709Z,26.42
2019-02-16T23:29:34.541Z,26.13
2019-02-16T23:32:04.326Z,26.63
2019-02-16T23:34:34.127Z,26.83
2019-02-16T23:37:03.899Z,26.07
2019-02-16T23:39:35.402Z,31.12
2019-02-16T23:42:07.043Z,33.38
2019-02-16T23:44:36.901Z,31.00
2019-02-16T23:47:06.636Z,37.67
2019-02-16T23:49:36.438Z,28.83
2019-02-16T23:52:06.558Z,31.33
2019-02-16T23:54:36.271Z,29.48
2019-02-16T23:57:06.182Z,30.82
2019-02-16T23:59:35.984Z,33.17
